Montreux, Switzerland
Current Conditions -  °F | °C
As of 4:50 PM on Wednesday 22 Oct 2014 (Local Time) from LSMS Reporting Station
Broken Clouds Broken Clouds  
Wind Chill: 38°   Ceiling: 8000
Heat Index: 45°   Visibility: 6mi
Dew Point: 30°   Wind: 13mph
Humidity: 57%   Direction: 260°W
Pressure: 30.24"   Gusts: NA
Location:  46.45°N, 6.88°E
Report Text: LSMS 221450Z 26011KT 9999 SCT045 BKN080 07/M01 Q1024
Loading
Personal Weather Stations






























Interactive Weather Map
Tropical Storm Tracking
New forecast layout! Learn more

10-Day Weather Forecast

Advertisements
Track Severe Weather on mobile